Accueil
METAR-TAF:

METAR-TAF

Aéroports :

Aérodrome de Sainte-Marie

Île Sainte-Marie, Madagascar

latitude: 17-05S, longitude: 049-49E, altitude: 2 m

METAR: absent

Heure: 20:37 (17:37 UTC)

Prévision

Le bulletin a été fait il y a 37 minutes, à 17:00 UTC
Prévision valable du 16 à 18 UTC au 17 à 18 UTC
Vent 18 kt de sud
Visibilité 10 km ou plus
Quelques nuages à une hauteur de 700 ft
Nuages épars à une hauteur de 1700 ft
Nuages fragmentés à une hauteur de 4000 ft
Temporairement
du 16 à 18 UTC au 17 à 14 UTC
Visibilité: 3500 m
averses de pluie

TAF: FMMS 161700Z 1618/1718 18018KT 9999 FEW007 SCT017 BKN040 TEMPO 1618/1714 3500 SHRA

Observations et prévisions météorologiques de plus de 4000 aéroports (messages METAR et TAF).

Les stations disponibles sont représentées par des disques jaunes et rouges sur la carte.

Passer la souris dessus pour voir le nom de la station.

Cliquer dessus pour voir les observations et prévisions météorologiques.

Pour changer de carte: cliquez sur les boutons verts avec une croix noire pour zoomer, sur le bouton vert avec un tiret pour effectuer un zoom arrière, ou sur les flèches vertes pour les cartes adjacentes.


METAR-TAF: